createdAt,value
2023-05-14T00:00:25.374Z,9.85
2023-05-14T00:02:53.437Z,9.80
2023-05-14T00:05:22.727Z,9.68
2023-05-14T00:07:50.669Z,10.32
2023-05-14T00:10:20.474Z,10.10
2023-05-14T00:12:48.449Z,9.48
2023-05-14T00:15:16.258Z,10.50
2023-05-14T00:17:44.164Z,9.40
2023-05-14T00:20:13.063Z,10.15
2023-05-14T00:22:42.584Z,9.80
2023-05-14T00:25:10.691Z,9.90
2023-05-14T00:27:38.573Z,10.23
2023-05-14T00:30:07.832Z,10.35
2023-05-14T00:32:35.798Z,13.30
2023-05-14T00:35:04.438Z,10.55
2023-05-14T00:37:32.429Z,10.00
2023-05-14T00:40:01.560Z,10.52
2023-05-14T00:42:29.419Z,10.57
2023-05-14T00:44:57.153Z,10.60
2023-05-14T00:47:25.157Z,10.88
2023-05-14T00:49:53.064Z,10.70
2023-05-14T00:52:22.873Z,11.57
2023-05-14T00:54:50.993Z,11.95
2023-05-14T00:57:20.261Z,11.30
2023-05-14T00:59:48.263Z,12.45
2023-05-14T01:02:17.452Z,11.95
2023-05-14T01:04:45.224Z,11.77
2023-05-14T01:07:21.837Z,11.02
2023-05-14T01:09:54.628Z,11.93
2023-05-14T01:12:31.077Z,12.07
2023-05-14T01:15:07.569Z,12.05
2023-05-14T01:17:40.191Z,11.95
2023-05-14T01:20:09.638Z,11.57
2023-05-14T01:22:38.759Z,12.00
2023-05-14T01:25:08.209Z,11.43
2023-05-14T01:27:39.741Z,11.70
2023-05-14T01:30:14.808Z,11.50
2023-05-14T01:32:45.831Z,11.13
2023-05-14T01:35:14.096Z,10.68
2023-05-14T01:37:45.156Z,11.05
2023-05-14T01:40:14.068Z,11.23
2023-05-14T01:42:42.483Z,11.68
2023-05-14T01:45:11.484Z,13.88
2023-05-14T01:47:39.429Z,12.30
2023-05-14T01:50:08.124Z,11.68
2023-05-14T01:52:35.926Z,10.95
2023-05-14T01:55:06.188Z,11.13
2023-05-14T01:57:33.882Z,11.30
2023-05-14T02:00:01.752Z,10.27
2023-05-14T02:02:29.598Z,10.95
2023-05-14T02:04:57.418Z,11.30
2023-05-14T02:07:25.192Z,12.38
2023-05-14T02:09:52.912Z,12.68
2023-05-14T02:12:22.423Z,12.68
2023-05-14T02:14:50.371Z,11.85
2023-05-14T02:17:19.585Z,10.65
2023-05-14T02:19:47.495Z,11.63
2023-05-14T02:22:15.368Z,11.90
2023-05-14T02:24:43.197Z,10.13
2023-05-14T02:27:12.875Z,11.25
2023-05-14T02:29:42.060Z,11.63
2023-05-14T02:32:10.102Z,11.52
2023-05-14T02:34:38.676Z,11.70
2023-05-14T02:37:06.629Z,11.40
2023-05-14T02:39:34.382Z,11.63
2023-05-14T02:42:02.195Z,11.48
2023-05-14T02:44:31.737Z,11.57
2023-05-14T02:47:00.988Z,11.52
2023-05-14T02:49:28.782Z,11.48
2023-05-14T02:51:56.652Z,10.57
2023-05-14T02:54:24.422Z,10.52
2023-05-14T02:56:52.133Z,10.65
2023-05-14T02:59:19.930Z,11.50
2023-05-14T03:01:48.121Z,11.35
2023-05-14T03:04:17.676Z,11.60
2023-05-14T03:06:45.479Z,12.02
2023-05-14T03:09:13.280Z,12.48
2023-05-14T03:11:41.208Z,12.05
2023-05-14T03:14:09.005Z,12.30
2023-05-14T03:16:36.754Z,11.20
2023-05-14T03:19:04.928Z,11.35
2023-05-14T03:21:34.372Z,10.82
2023-05-14T03:24:02.239Z,11.98
2023-05-14T03:26:30.046Z,11.07
2023-05-14T03:28:58.029Z,10.00
2023-05-14T03:31:25.871Z,11.00
2023-05-14T03:33:54.860Z,12.88
2023-05-14T03:36:22.650Z,11.00
2023-05-14T03:38:51.757Z,11.65
2023-05-14T03:41:20.481Z,9.88
2023-05-14T03:43:48.309Z,10.48
2023-05-14T03:46:15.989Z,9.85
2023-05-14T03:48:43.808Z,9.52
2023-05-14T03:51:11.835Z,9.55
2023-05-14T03:53:39.651Z,9.15
2023-05-14T03:56:08.878Z,8.82
2023-05-14T03:58:36.822Z,9.05
2023-05-14T04:01:04.772Z,8.40
2023-05-14T04:03:32.676Z,9.70
2023-05-14T04:06:00.813Z,9.25
2023-05-14T04:08:28.615Z,10.00
2023-05-14T04:10:56.339Z,9.75
2023-05-14T04:13:25.622Z,10.15
2023-05-14T04:15:53.731Z,10.20
2023-05-14T04:18:21.515Z,11.35
2023-05-14T04:20:49.329Z,10.50
2023-05-14T04:23:17.113Z,10.65
2023-05-14T04:25:44.852Z,10.80
2023-05-14T04:28:12.616Z,11.13
2023-05-14T04:30:41.868Z,11.02
2023-05-14T04:33:10.364Z,11.00
2023-05-14T04:35:38.594Z,11.18
2023-05-14T04:38:06.437Z,9.48
2023-05-14T04:40:34.296Z,9.82
2023-05-14T04:43:02.110Z,9.55
2023-05-14T04:45:30.865Z,9.23
2023-05-14T04:48:01.074Z,9.88
2023-05-14T04:50:29.039Z,10.10
2023-05-14T04:52:56.798Z,9.57
2023-05-14T04:55:24.639Z,10.23
2023-05-14T04:57:52.689Z,9.68
2023-05-14T05:00:22.107Z,9.57
2023-05-14T05:02:50.262Z,8.88
2023-05-14T05:05:19.531Z,9.07
2023-05-14T05:07:47.369Z,8.75
2023-05-14T05:10:15.164Z,9.13
2023-05-14T05:12:42.959Z,8.63
2023-05-14T05:15:11.094Z,8.90
2023-05-14T05:17:38.991Z,7.70
2023-05-14T05:20:09.767Z,8.98
2023-05-14T05:22:38.840Z,8.45
2023-05-14T05:25:08.160Z,8.85
2023-05-14T05:27:36.015Z,8.25
2023-05-14T05:30:04.019Z,8.15
2023-05-14T05:32:32.505Z,7.47
2023-05-14T05:35:00.250Z,8.10
2023-05-14T05:37:27.940Z,8.48
2023-05-14T05:39:57.064Z,7.55
2023-05-14T05:42:26.298Z,8.10
2023-05-14T05:44:54.038Z,7.90
2023-05-14T05:47:21.898Z,7.88
2023-05-14T05:49:50.009Z,8.73
2023-05-14T05:52:17.785Z,8.00
2023-05-14T05:54:45.656Z,7.93
2023-05-14T05:57:14.975Z,10.18
2023-05-14T05:59:42.675Z,8.30
2023-05-14T06:02:10.513Z,8.65
2023-05-14T06:04:38.338Z,8.45
2023-05-14T06:07:06.315Z,8.68
2023-05-14T06:09:34.042Z,9.15
2023-05-14T06:12:01.885Z,9.10
2023-05-14T06:14:30.990Z,8.75
2023-05-14T06:16:59.754Z,8.73
2023-05-14T06:19:27.719Z,8.63
2023-05-14T06:21:56.101Z,9.68
2023-05-14T06:24:23.846Z,9.30
2023-05-14T06:26:51.762Z,9.85
2023-05-14T06:29:19.481Z,9.23
2023-05-14T06:31:48.519Z,8.63
2023-05-14T06:34:16.399Z,10.27
2023-05-14T06:36:44.170Z,10.95
2023-05-14T06:39:12.550Z,11.13
2023-05-14T06:41:40.506Z,10.93
2023-05-14T06:44:08.400Z,11.20
2023-05-14T06:46:36.229Z,11.88
2023-05-14T06:49:05.809Z,10.93
2023-05-14T06:51:33.671Z,10.70
2023-05-14T06:54:01.588Z,10.90
2023-05-14T06:56:29.354Z,10.95
2023-05-14T06:58:57.110Z,13.23
2023-05-14T07:01:24.913Z,11.27
2023-05-14T07:03:52.740Z,10.98
2023-05-14T07:06:22.860Z,12.00
2023-05-14T07:08:50.920Z,11.80
2023-05-14T07:11:18.759Z,12.20
2023-05-14T07:13:46.505Z,11.85
2023-05-14T07:16:14.437Z,11.13
2023-05-14T07:18:42.392Z,11.55
2023-05-14T07:21:10.530Z,11.27
2023-05-14T07:23:39.736Z,10.77
2023-05-14T07:26:08.221Z,11.88
2023-05-14T07:28:36.131Z,10.98
2023-05-14T07:31:05.052Z,12.68
2023-05-14T07:33:33.135Z,11.00
2023-05-14T07:36:00.894Z,10.60
2023-05-14T07:38:28.814Z,10.65
2023-05-14T07:40:57.876Z,8.82
2023-05-14T07:43:25.709Z,8.48
2023-05-14T07:45:53.507Z,8.75
2023-05-14T07:48:21.336Z,7.60
2023-05-14T07:50:50.158Z,6.72
2023-05-14T07:53:17.962Z,4.88
2023-05-14T07:55:48.226Z,39.45
2023-05-14T07:58:17.421Z,5.38
2023-05-14T08:00:45.253Z,5.13
2023-05-14T08:03:13.241Z,5.75
2023-05-14T08:05:41.101Z,5.70
2023-05-14T08:08:08.840Z,6.28
2023-05-14T08:10:36.662Z,6.47
2023-05-14T08:13:04.491Z,6.10
2023-05-14T08:15:33.586Z,6.80
2023-05-14T08:18:03.752Z,6.70
2023-05-14T08:20:31.723Z,6.97
2023-05-14T08:22:59.425Z,7.05
2023-05-14T08:25:27.254Z,6.70
2023-05-14T08:27:55.061Z,7.10
2023-05-14T08:30:23.367Z,7.43
2023-05-14T08:32:52.872Z,6.45
2023-05-14T08:35:20.987Z,5.75
2023-05-14T08:37:50.460Z,5.18
2023-05-14T08:40:18.929Z,5.18
2023-05-14T08:42:47.513Z,6.00
2023-05-14T08:45:19.927Z,5.88
2023-05-14T08:47:50.292Z,5.13
2023-05-14T08:50:22.705Z,5.40
2023-05-14T08:52:51.511Z,9.85
2023-05-14T08:55:19.891Z,4.82
2023-05-14T08:57:47.637Z,7.10
2023-05-14T09:00:16.315Z,6.88
2023-05-14T09:02:45.912Z,6.22
2023-05-14T09:05:13.754Z,6.30
2023-05-14T09:07:43.111Z,5.35
2023-05-14T09:10:11.405Z,12.57
2023-05-14T09:12:39.090Z,6.25
2023-05-14T09:15:08.044Z,5.90
2023-05-14T09:17:35.999Z,4.57
2023-05-14T09:20:05.008Z,5.25
2023-05-14T09:22:33.299Z,5.30
2023-05-14T09:25:07.698Z,5.38
2023-05-14T09:27:36.354Z,4.90
2023-05-14T09:30:09.338Z,5.82
2023-05-14T09:32:42.555Z,5.22
2023-05-14T09:35:17.400Z,4.32
2023-05-14T09:37:47.416Z,4.75
2023-05-14T09:40:18.436Z,5.05
2023-05-14T09:42:46.381Z,5.10
2023-05-14T09:45:14.484Z,5.00
2023-05-14T09:47:42.535Z,4.82
2023-05-14T09:50:10.698Z,4.70
2023-05-14T09:52:39.231Z,4.68
2023-05-14T09:55:08.432Z,5.03
2023-05-14T09:57:37.742Z,5.20
2023-05-14T10:00:06.772Z,7.15
2023-05-14T10:02:38.812Z,5.78
2023-05-14T10:05:08.109Z,5.15
2023-05-14T10:07:40.764Z,4.18
2023-05-14T10:10:11.735Z,4.15
2023-05-14T10:12:42.097Z,4.32
2023-05-14T10:15:17.738Z,7.00
2023-05-14T10:17:50.034Z,5.40
2023-05-14T10:20:18.439Z,4.15
2023-05-14T10:22:47.376Z,4.05
2023-05-14T10:25:15.865Z,4.38
2023-05-14T10:27:45.230Z,3.78
2023-05-14T10:30:13.789Z,4.20
2023-05-14T10:32:44.230Z,3.60
2023-05-14T10:35:20.658Z,3.60
2023-05-14T10:37:48.809Z,3.08
2023-05-14T10:40:17.798Z,2.55
2023-05-14T10:42:47.969Z,2.92
2023-05-14T10:45:16.793Z,2.70
2023-05-14T10:47:47.051Z,2.70
2023-05-14T10:50:17.641Z,2.47
2023-05-14T10:52:46.790Z,2.55
2023-05-14T10:55:16.059Z,2.67
2023-05-14T10:57:47.372Z,2.30
2023-05-14T11:00:17.086Z,2.58
2023-05-14T11:02:45.824Z,2.25
2023-05-14T11:05:17.062Z,2.17
2023-05-14T11:07:45.863Z,2.00
2023-05-14T11:10:14.992Z,2.00
2023-05-14T11:12:44.065Z,2.03
2023-05-14T11:15:15.252Z,2.00
2023-05-14T11:17:44.954Z,2.50
2023-05-14T11:20:13.776Z,2.38
2023-05-14T11:22:43.090Z,2.40
2023-05-14T11:25:14.560Z,2.90
2023-05-14T11:30:16.238Z,3.80
2023-05-14T11:32:46.374Z,3.97
2023-05-14T11:35:14.625Z,3.95
2023-05-14T11:37:42.736Z,3.97
2023-05-14T11:40:16.714Z,4.88
2023-05-14T11:42:44.804Z,8.68
2023-05-14T11:45:14.720Z,5.05
2023-05-14T11:47:44.353Z,4.30
2023-05-14T11:50:12.522Z,5.65
2023-05-14T11:52:41.881Z,4.00
2023-05-14T11:55:13.593Z,4.50
2023-05-14T11:57:41.910Z,4.70
2023-05-14T12:00:13.501Z,4.57
2023-05-14T12:02:43.285Z,4.28
2023-05-14T12:05:14.358Z,4.15
2023-05-14T12:07:45.285Z,3.45
2023-05-14T12:10:13.666Z,3.92
2023-05-14T12:12:41.429Z,4.13
2023-05-14T12:15:13.626Z,8.23
2023-05-14T12:17:43.012Z,9.63
2023-05-14T12:20:12.627Z,4.95
2023-05-14T12:22:42.624Z,5.35
2023-05-14T12:25:13.712Z,5.53
2023-05-14T12:27:41.935Z,6.13
2023-05-14T12:30:20.605Z,7.38
2023-05-14T12:32:53.511Z,9.60
2023-05-14T12:35:22.811Z,9.32
2023-05-14T12:37:51.438Z,10.25
2023-05-14T12:40:19.379Z,9.38
2023-05-14T12:42:47.117Z,8.60
2023-05-14T12:45:14.769Z,8.40
2023-05-14T12:47:42.666Z,8.35
2023-05-14T12:50:12.756Z,7.47
2023-05-14T12:52:40.547Z,6.30
2023-05-14T12:55:09.353Z,6.63
2023-05-14T12:57:39.580Z,6.22
2023-05-14T13:00:13.022Z,5.18
2023-05-14T13:02:42.790Z,5.82
2023-05-14T13:05:13.037Z,5.15
2023-05-14T13:07:40.806Z,4.47
2023-05-14T13:10:09.508Z,4.65
2023-05-14T13:12:37.234Z,4.53
2023-05-14T13:15:05.643Z,6.22
2023-05-14T13:17:33.447Z,5.25
2023-05-14T13:20:01.166Z,5.63
2023-05-14T13:22:30.830Z,5.97
2023-05-14T13:24:58.978Z,6.72
2023-05-14T13:27:26.948Z,6.55
2023-05-14T13:29:54.693Z,6.45
2023-05-14T13:32:22.467Z,5.65
2023-05-14T13:34:50.731Z,5.57
2023-05-14T13:37:18.445Z,5.30
2023-05-14T13:39:48.721Z,6.38
2023-05-14T13:42:17.272Z,4.93
2023-05-14T13:44:45.485Z,5.40
2023-05-14T13:47:13.235Z,4.75
2023-05-14T13:49:41.760Z,3.70
2023-05-14T13:52:09.503Z,3.80
2023-05-14T13:54:37.326Z,3.70
2023-05-14T13:57:06.814Z,3.90
2023-05-14T13:59:34.598Z,3.60
2023-05-14T14:02:02.451Z,3.45
2023-05-14T14:04:30.712Z,4.00
2023-05-14T14:06:59.163Z,3.63
2023-05-14T14:09:27.240Z,8.57
2023-05-14T14:11:55.069Z,5.78
2023-05-14T14:14:24.183Z,3.42
2023-05-14T14:16:51.988Z,3.80
2023-05-14T14:19:19.737Z,3.45
2023-05-14T14:21:47.712Z,3.90
2023-05-14T14:24:15.518Z,2.92
2023-05-14T14:26:43.247Z,2.88
2023-05-14T14:29:11.073Z,2.95
2023-05-14T14:31:40.269Z,2.80
2023-05-14T14:34:08.073Z,2.83
2023-05-14T14:36:35.814Z,6.97
2023-05-14T14:39:04.797Z,2.67
2023-05-14T14:41:32.540Z,2.30
2023-05-14T14:44:02.657Z,2.10
2023-05-14T14:46:30.607Z,1.90
2023-05-14T14:48:59.721Z,1.92
2023-05-14T14:51:27.710Z,1.98
2023-05-14T14:53:55.557Z,2.00
2023-05-14T14:56:23.649Z,1.85
2023-05-14T14:58:51.598Z,1.90
2023-05-14T15:01:19.591Z,3.25
2023-05-14T15:03:48.397Z,4.50
2023-05-14T15:06:17.813Z,3.40
2023-05-14T15:08:45.534Z,3.10
2023-05-14T15:11:13.267Z,2.85
2023-05-14T15:13:41.872Z,2.80
2023-05-14T15:16:09.991Z,3.00
2023-05-14T15:18:37.878Z,3.65
2023-05-14T15:21:05.960Z,3.40
2023-05-14T15:23:35.137Z,3.22
2023-05-14T15:26:02.902Z,3.47
2023-05-14T15:28:30.656Z,2.95
2023-05-14T15:30:58.881Z,3.40
2023-05-14T15:33:26.631Z,3.78
2023-05-14T15:35:54.470Z,3.00
2023-05-14T15:38:22.298Z,2.92
2023-05-14T15:40:51.507Z,3.17
2023-05-14T15:43:19.197Z,2.90
2023-05-14T15:45:47.004Z,2.90
2023-05-14T15:48:14.868Z,3.50
2023-05-14T15:50:43.816Z,4.10
2023-05-14T15:53:11.636Z,3.90
2023-05-14T15:55:39.365Z,3.80
2023-05-14T15:58:08.540Z,3.50
2023-05-14T16:00:36.406Z,3.22
2023-05-14T16:03:04.500Z,3.60
2023-05-14T16:05:32.338Z,3.25
2023-05-14T16:08:00.360Z,2.83
2023-05-14T16:10:28.163Z,2.80
2023-05-14T16:12:56.072Z,3.00
2023-05-14T16:15:25.235Z,2.35
2023-05-14T16:17:53.011Z,2.67
2023-05-14T16:20:21.351Z,3.90
2023-05-14T16:22:49.235Z,3.80
2023-05-14T16:25:18.764Z,4.80
2023-05-14T16:27:46.648Z,5.20
2023-05-14T16:30:14.716Z,4.38
2023-05-14T16:32:46.520Z,4.85
2023-05-14T16:35:14.394Z,5.60
2023-05-14T16:37:42.272Z,5.10
2023-05-14T16:40:11.844Z,4.15
2023-05-14T16:42:39.831Z,4.18
2023-05-14T16:45:08.637Z,4.05
2023-05-14T16:47:36.414Z,4.75
2023-05-14T16:50:05.908Z,11.25
2023-05-14T16:52:33.796Z,5.28
2023-05-14T16:55:01.570Z,4.53
2023-05-14T16:57:29.394Z,4.50
2023-05-14T16:59:57.180Z,4.05
2023-05-14T17:02:24.982Z,4.57
2023-05-14T17:04:54.318Z,4.18
2023-05-14T17:07:23.499Z,3.25
2023-05-14T17:09:51.383Z,3.47
2023-05-14T17:12:19.294Z,3.35
2023-05-14T17:14:47.056Z,3.55
2023-05-14T17:17:14.899Z,3.20
2023-05-14T17:19:42.651Z,3.38
2023-05-14T17:22:10.942Z,3.50
2023-05-14T17:24:40.024Z,3.67
2023-05-14T17:27:07.869Z,3.58
2023-05-14T17:29:35.725Z,3.83
2023-05-14T17:32:03.648Z,3.97
2023-05-14T17:34:31.680Z,4.80
2023-05-14T17:37:00.789Z,4.38
2023-05-14T17:39:29.079Z,5.25
2023-05-14T17:41:58.552Z,5.38
2023-05-14T17:44:26.304Z,5.68
2023-05-14T17:46:54.244Z,4.82
2023-05-14T17:49:22.103Z,5.05
2023-05-14T17:51:50.182Z,5.72
2023-05-14T17:54:18.021Z,5.28
2023-05-14T17:56:46.146Z,7.32
2023-05-14T17:59:15.315Z,6.93
2023-05-14T18:01:43.119Z,5.75
2023-05-14T18:04:11.090Z,4.75
2023-05-14T18:06:39.104Z,5.07
2023-05-14T18:09:06.824Z,5.38
2023-05-14T18:11:34.697Z,4.95
2023-05-14T18:14:02.571Z,6.20
2023-05-14T18:16:32.116Z,4.97
2023-05-14T18:19:00.785Z,5.65
2023-05-14T18:21:28.518Z,5.20
2023-05-14T18:23:56.382Z,4.88
2023-05-14T18:26:24.150Z,5.95
2023-05-14T18:28:52.535Z,4.88
2023-05-14T18:31:20.267Z,5.28
2023-05-14T18:33:49.645Z,9.05
2023-05-14T18:36:19.874Z,5.18
2023-05-14T18:38:47.569Z,5.32
2023-05-14T18:41:15.386Z,5.25
2023-05-14T18:43:43.099Z,5.38
2023-05-14T18:46:12.250Z,6.00
2023-05-14T18:48:40.063Z,5.47
2023-05-14T18:51:11.227Z,5.55
2023-05-14T18:53:39.175Z,6.07
2023-05-14T18:56:06.957Z,5.78
2023-05-14T18:58:34.941Z,5.03
2023-05-14T19:01:02.643Z,7.50
2023-05-14T19:03:30.606Z,5.20
2023-05-14T19:05:58.486Z,5.35
2023-05-14T19:08:27.664Z,5.38
2023-05-14T19:10:55.361Z,5.25
2023-05-14T19:13:23.717Z,5.13
2023-05-14T19:15:51.629Z,5.65
2023-05-14T19:18:19.589Z,5.70
2023-05-14T19:20:47.399Z,6.40
2023-05-14T19:23:15.226Z,6.20
2023-05-14T19:25:44.427Z,6.78
2023-05-14T19:28:12.131Z,6.75
2023-05-14T19:30:39.851Z,8.10
2023-05-14T19:33:07.657Z,7.97
2023-05-14T19:35:35.774Z,7.55
2023-05-14T19:38:03.648Z,7.60
2023-05-14T19:40:31.477Z,7.55
2023-05-14T19:43:00.613Z,7.88
2023-05-14T19:45:28.403Z,7.10
2023-05-14T19:47:56.309Z,7.68
2023-05-14T19:50:24.131Z,10.95
2023-05-14T19:52:51.837Z,9.07
2023-05-14T19:55:19.665Z,8.02
2023-05-14T19:57:47.399Z,8.23
2023-05-14T20:00:17.305Z,7.55
2023-05-14T20:02:45.672Z,8.35
2023-05-14T20:05:13.983Z,8.50
2023-05-14T20:07:42.591Z,11.15
2023-05-14T20:10:11.320Z,7.82
2023-05-14T20:12:39.075Z,6.57
2023-05-14T20:15:07.778Z,6.55
2023-05-14T20:17:36.914Z,6.28
2023-05-14T20:20:06.827Z,6.13
2023-05-14T20:22:34.540Z,6.07
2023-05-14T20:25:02.373Z,5.68
2023-05-14T20:27:30.159Z,5.90
2023-05-14T20:29:57.948Z,6.28
2023-05-14T20:32:26.157Z,5.95
2023-05-14T20:34:55.353Z,6.68
2023-05-14T20:37:24.112Z,6.18
2023-05-14T20:39:53.084Z,6.13
2023-05-14T20:42:20.975Z,6.25
2023-05-14T20:44:49.041Z,9.02
2023-05-14T20:47:20.430Z,6.78
2023-05-14T20:49:49.239Z,6.28
2023-05-14T20:52:18.885Z,7.00
2023-05-14T20:54:47.094Z,7.10
2023-05-14T20:57:16.390Z,7.03
2023-05-14T20:59:44.187Z,7.43
2023-05-14T21:02:12.080Z,8.07
2023-05-14T21:04:40.533Z,7.13
2023-05-14T21:07:08.855Z,7.15
2023-05-14T21:09:38.546Z,7.03
2023-05-14T21:12:07.200Z,6.82
2023-05-14T21:14:34.973Z,7.28
2023-05-14T21:17:03.526Z,6.47
2023-05-14T21:19:31.283Z,5.45
2023-05-14T21:21:59.121Z,6.18
2023-05-14T21:24:26.904Z,5.93
2023-05-14T21:26:56.134Z,5.85
2023-05-14T21:29:24.386Z,4.82
2023-05-14T21:31:52.163Z,4.95
2023-05-14T21:34:19.856Z,8.05
2023-05-14T21:36:48.130Z,4.55
2023-05-14T21:39:15.956Z,4.03
2023-05-14T21:41:43.671Z,4.75
2023-05-14T21:44:12.912Z,4.22
2023-05-14T21:46:40.812Z,4.10
2023-05-14T21:49:08.672Z,3.60
2023-05-14T21:51:36.470Z,4.13
2023-05-14T21:54:04.263Z,4.22
2023-05-14T21:56:32.274Z,4.05
2023-05-14T21:59:00.017Z,3.83
2023-05-14T22:01:29.636Z,3.85
2023-05-14T22:03:58.028Z,3.60
2023-05-14T22:06:26.066Z,3.65
2023-05-14T22:08:53.821Z,3.33
2023-05-14T22:11:22.047Z,3.50
2023-05-14T22:13:49.844Z,3.55
2023-05-14T22:16:17.661Z,3.88
2023-05-14T22:18:47.228Z,4.13
2023-05-14T22:21:15.092Z,4.03
2023-05-14T22:23:42.785Z,3.70
2023-05-14T22:26:10.707Z,3.65
2023-05-14T22:28:42.892Z,3.85
2023-05-14T22:31:10.985Z,3.92
2023-05-14T22:33:38.794Z,4.00
2023-05-14T22:36:08.563Z,3.90
2023-05-14T22:38:36.428Z,3.88
2023-05-14T22:41:04.190Z,3.70
2023-05-14T22:43:31.950Z,4.38
2023-05-14T22:45:59.988Z,3.97
2023-05-14T22:48:27.697Z,4.05
2023-05-14T22:50:55.680Z,3.60
2023-05-14T22:53:25.339Z,3.90
2023-05-14T22:55:53.293Z,3.80
2023-05-14T22:58:21.186Z,4.15
2023-05-14T23:00:49.007Z,3.70
2023-05-14T23:03:16.782Z,3.83
2023-05-14T23:05:44.510Z,3.80
2023-05-14T23:08:12.361Z,3.83
2023-05-14T23:10:41.548Z,4.03
2023-05-14T23:13:09.355Z,3.67
2023-05-14T23:15:37.102Z,3.90
2023-05-14T23:18:05.464Z,4.50
2023-05-14T23:20:33.553Z,3.67
2023-05-14T23:23:01.266Z,5.72
2023-05-14T23:25:29.028Z,5.40
2023-05-14T23:27:58.182Z,4.00
2023-05-14T23:30:26.004Z,3.33
2023-05-14T23:32:53.805Z,3.30
2023-05-14T23:35:21.575Z,3.38
2023-05-14T23:37:51.026Z,3.20
2023-05-14T23:40:19.115Z,3.80
2023-05-14T23:42:46.954Z,3.33
2023-05-14T23:45:16.536Z,3.70
2023-05-14T23:47:44.451Z,3.92
2023-05-14T23:50:12.242Z,4.25
2023-05-14T23:52:40.022Z,4.95
2023-05-14T23:55:08.397Z,4.65
2023-05-14T23:57:37.230Z,8.82
